createdAt,value
2018-05-17T00:01:29.364Z,20.31
2018-05-17T00:03:58.504Z,20.23
2018-05-17T00:06:27.763Z,20.20
2018-05-17T00:08:56.649Z,20.16
2018-05-17T00:11:25.500Z,20.18
2018-05-17T00:13:54.762Z,20.20
2018-05-17T00:16:23.780Z,20.11
2018-05-17T00:18:53.300Z,20.02
2018-05-17T00:21:22.444Z,20.12
2018-05-17T00:23:51.875Z,19.93
2018-05-17T00:26:20.984Z,19.83
2018-05-17T00:28:50.365Z,19.74
2018-05-17T00:31:19.565Z,19.69
2018-05-17T00:33:48.492Z,19.62
2018-05-17T00:36:17.612Z,19.56
2018-05-17T00:38:46.797Z,19.55
2018-05-17T00:41:15.768Z,19.55
2018-05-17T00:43:45.096Z,19.52
2018-05-17T00:46:14.000Z,19.51
2018-05-17T00:48:43.164Z,19.52
2018-05-17T00:51:12.747Z,19.54
2018-05-17T00:53:42.236Z,19.47
2018-05-17T00:56:11.308Z,19.43
2018-05-17T00:58:40.653Z,19.41
2018-05-17T01:01:09.907Z,19.39
2018-05-17T01:03:39.339Z,19.45
2018-05-17T01:06:08.272Z,19.46
2018-05-17T01:08:38.164Z,19.44
2018-05-17T01:11:07.246Z,19.40
2018-05-17T01:13:36.285Z,19.44
2018-05-17T01:16:05.539Z,19.40
2018-05-17T01:18:34.595Z,19.33
2018-05-17T01:21:03.612Z,19.28
2018-05-17T01:23:32.816Z,19.20
2018-05-17T01:26:01.826Z,19.18
2018-05-17T01:28:30.918Z,19.20
2018-05-17T01:31:00.053Z,19.17
2018-05-17T01:33:29.004Z,19.16
2018-05-17T01:35:58.273Z,19.15
2018-05-17T01:38:27.522Z,19.16
2018-05-17T01:40:56.498Z,19.14
2018-05-17T01:43:25.388Z,19.16
2018-05-17T01:45:54.659Z,19.21
2018-05-17T01:48:23.857Z,19.25
2018-05-17T01:50:53.294Z,19.25
2018-05-17T01:53:23.318Z,19.17
2018-05-17T01:55:52.352Z,19.13
2018-05-17T01:58:21.400Z,19.11
2018-05-17T02:00:50.512Z,19.22
2018-05-17T02:03:19.869Z,19.18
2018-05-17T02:05:48.884Z,19.03
2018-05-17T02:08:18.165Z,18.92
2018-05-17T02:10:47.341Z,18.90
2018-05-17T02:13:16.597Z,18.81
2018-05-17T02:15:45.632Z,18.84
2018-05-17T02:18:14.684Z,18.79
2018-05-17T02:20:43.796Z,18.75
2018-05-17T02:23:13.184Z,18.74
2018-05-17T02:25:42.267Z,18.71
2018-05-17T02:28:11.392Z,18.70
2018-05-17T02:30:40.636Z,18.64
2018-05-17T02:33:09.982Z,18.62
2018-05-17T02:35:39.128Z,18.60
2018-05-17T02:38:09.092Z,18.58
2018-05-17T02:40:38.376Z,18.51
2018-05-17T02:43:07.544Z,18.41
2018-05-17T02:45:36.930Z,18.40
2018-05-17T02:48:06.175Z,18.41
2018-05-17T02:50:35.628Z,18.37
2018-05-17T02:53:05.212Z,18.33
2018-05-17T02:55:34.436Z,18.26
2018-05-17T02:58:03.585Z,18.35
2018-05-17T03:00:32.921Z,18.50
2018-05-17T03:03:02.340Z,18.55
2018-05-17T03:05:31.586Z,18.55
2018-05-17T03:08:00.639Z,18.67
2018-05-17T03:10:29.762Z,18.86
2018-05-17T03:12:59.118Z,18.90
2018-05-17T03:15:28.229Z,18.89
2018-05-17T03:17:57.356Z,18.89
2018-05-17T03:20:26.888Z,18.89
2018-05-17T03:22:56.181Z,19.11
2018-05-17T03:25:25.192Z,19.19
2018-05-17T03:27:54.252Z,19.13
2018-05-17T03:30:23.380Z,19.04
2018-05-17T03:32:52.444Z,18.99
2018-05-17T03:35:21.591Z,19.09
2018-05-17T03:37:51.172Z,19.12
2018-05-17T03:40:20.400Z,19.23
2018-05-17T03:42:49.728Z,19.31
2018-05-17T03:45:19.000Z,19.47
2018-05-17T03:47:48.110Z,19.50
2018-05-17T03:50:17.182Z,19.69
2018-05-17T03:52:46.448Z,19.62
2018-05-17T03:55:16.193Z,19.71
2018-05-17T03:57:45.236Z,20.09
2018-05-17T04:00:14.438Z,20.33
2018-05-17T04:02:55.097Z,20.68
2018-05-17T04:05:35.332Z,20.93
2018-05-17T04:08:04.317Z,21.10
2018-05-17T04:10:33.323Z,20.71
2018-05-17T04:13:02.428Z,20.81
2018-05-17T04:15:31.609Z,21.03
2018-05-17T04:18:00.802Z,20.95
2018-05-17T04:20:29.916Z,21.49
2018-05-17T04:22:59.071Z,21.24
2018-05-17T04:25:28.925Z,21.03
2018-05-17T04:27:58.448Z,21.06
2018-05-17T04:30:27.851Z,21.05
2018-05-17T04:32:57.358Z,20.80
2018-05-17T04:35:26.456Z,20.66
2018-05-17T04:37:55.435Z,20.85
2018-05-17T04:40:24.624Z,20.54
2018-05-17T04:42:53.652Z,20.58
2018-05-17T04:45:22.696Z,20.57
2018-05-17T04:47:52.064Z,20.25
2018-05-17T04:50:21.100Z,20.42
2018-05-17T04:52:50.574Z,20.47
2018-05-17T04:55:19.763Z,20.48
2018-05-17T04:57:48.937Z,20.63
2018-05-17T05:00:18.180Z,20.75
2018-05-17T05:02:47.394Z,20.78
2018-05-17T05:05:16.654Z,20.83
2018-05-17T05:07:45.907Z,20.81
2018-05-17T05:10:14.985Z,21.28
2018-05-17T05:12:44.336Z,21.29
2018-05-17T05:15:13.368Z,21.08
2018-05-17T05:17:42.549Z,21.21
2018-05-17T05:20:11.608Z,21.39
2018-05-17T05:22:41.287Z,21.44
2018-05-17T05:25:10.269Z,21.77
2018-05-17T05:27:39.632Z,22.91
2018-05-17T05:30:09.161Z,22.89
2018-05-17T05:32:38.422Z,23.51
2018-05-17T05:35:07.489Z,23.76
2018-05-17T05:37:36.900Z,23.31
2018-05-17T05:40:06.241Z,22.68
2018-05-17T05:42:37.152Z,22.92
2018-05-17T05:45:06.232Z,23.16
2018-05-17T05:47:35.600Z,23.33
2018-05-17T05:50:04.816Z,23.20
2018-05-17T05:52:34.063Z,24.20
2018-05-17T05:55:03.443Z,24.28
2018-05-17T05:57:32.721Z,24.18
2018-05-17T06:00:02.100Z,24.48
2018-05-17T06:02:31.575Z,24.84
2018-05-17T06:05:01.538Z,24.26
2018-05-17T06:07:30.540Z,23.99
2018-05-17T06:10:00.038Z,24.53
2018-05-17T06:12:29.274Z,24.24
2018-05-17T06:14:58.596Z,24.76
2018-05-17T06:17:27.623Z,24.56
2018-05-17T06:19:56.861Z,24.48
2018-05-17T06:22:25.848Z,24.71
2018-05-17T06:24:55.020Z,26.01
2018-05-17T06:27:24.448Z,26.31
2018-05-17T06:29:54.172Z,26.33
2018-05-17T06:32:23.444Z,25.36
2018-05-17T06:34:52.738Z,25.67
2018-05-17T06:37:22.349Z,25.75
2018-05-17T06:39:52.988Z,25.89
2018-05-17T06:42:24.291Z,25.80
2018-05-17T06:44:54.281Z,26.23
2018-05-17T06:47:23.750Z,25.55
2018-05-17T06:49:53.052Z,24.04
2018-05-17T06:52:22.600Z,24.11
2018-05-17T06:54:51.925Z,24.82
2018-05-17T06:57:20.918Z,25.67
2018-05-17T06:59:50.603Z,24.72
2018-05-17T07:02:19.628Z,24.73
2018-05-17T07:04:48.760Z,25.29
2018-05-17T07:07:18.173Z,25.42
2018-05-17T07:09:47.336Z,24.91
2018-05-17T07:12:16.360Z,25.65
2018-05-17T07:14:45.571Z,24.26
2018-05-17T07:17:14.867Z,24.95
2018-05-17T07:19:44.458Z,25.60
2018-05-17T07:22:13.613Z,25.49
2018-05-17T07:24:43.410Z,25.82
2018-05-17T07:27:12.508Z,24.67
2018-05-17T07:29:41.649Z,25.39
2018-05-17T07:32:10.697Z,24.84
2018-05-17T07:34:39.848Z,24.33
2018-05-17T07:37:08.809Z,24.88
2018-05-17T07:39:38.678Z,25.49
2018-05-17T07:42:07.906Z,25.22
2018-05-17T07:44:38.310Z,25.41
2018-05-17T07:47:07.927Z,25.19
2018-05-17T07:49:36.988Z,24.68
2018-05-17T07:52:06.104Z,24.80
2018-05-17T07:54:35.348Z,24.11
2018-05-17T07:57:04.449Z,23.93
2018-05-17T07:59:33.577Z,24.10
2018-05-17T08:02:02.816Z,23.81
2018-05-17T08:04:32.089Z,24.09
2018-05-17T08:07:01.266Z,24.98
2018-05-17T08:09:30.588Z,24.51
2018-05-17T08:11:59.913Z,25.09
2018-05-17T08:14:29.036Z,24.56
2018-05-17T08:16:58.454Z,25.29
2018-05-17T08:19:27.914Z,24.57
2018-05-17T08:21:57.407Z,24.21
2018-05-17T08:24:27.507Z,24.50
2018-05-17T08:26:56.614Z,24.63
2018-05-17T08:29:26.111Z,24.12
2018-05-17T08:31:55.643Z,24.68
2018-05-17T08:34:25.046Z,24.67
2018-05-17T08:36:54.288Z,24.45
2018-05-17T08:39:23.558Z,24.93
2018-05-17T08:41:53.027Z,24.94
2018-05-17T08:44:22.222Z,24.48
2018-05-17T08:46:52.238Z,24.50
2018-05-17T08:49:21.676Z,24.49
2018-05-17T08:51:51.018Z,24.68
2018-05-17T08:54:20.281Z,24.39
2018-05-17T08:56:49.640Z,24.34
2018-05-17T08:59:19.177Z,25.67
2018-05-17T09:01:48.427Z,25.84
2018-05-17T09:04:18.474Z,24.50
2018-05-17T09:06:47.740Z,24.17
2018-05-17T09:09:17.275Z,24.46
2018-05-17T09:11:46.416Z,24.52
2018-05-17T09:14:15.452Z,24.14
2018-05-17T09:16:46.041Z,24.24
2018-05-17T09:19:15.296Z,24.01
2018-05-17T09:21:44.733Z,24.41
2018-05-17T09:24:14.104Z,25.93
2018-05-17T09:26:43.444Z,25.64
2018-05-17T09:29:12.768Z,26.03
2018-05-17T09:31:41.961Z,26.59
2018-05-17T09:34:10.993Z,26.00
2018-05-17T09:36:40.089Z,25.29
2018-05-17T09:39:09.380Z,27.48
2018-05-17T09:41:38.392Z,26.62
2018-05-17T09:44:07.576Z,26.26
2018-05-17T09:46:36.764Z,28.48
2018-05-17T09:49:05.945Z,29.03
2018-05-17T09:51:35.076Z,28.98
2018-05-17T09:54:04.456Z,28.65
2018-05-17T09:56:33.835Z,28.66
2018-05-17T09:59:03.163Z,28.47
2018-05-17T10:01:32.163Z,26.86
2018-05-17T10:04:01.760Z,26.09
2018-05-17T10:06:30.828Z,26.39
2018-05-17T10:09:00.309Z,28.53
2018-05-17T10:11:29.364Z,28.82
2018-05-17T10:13:58.409Z,28.26
2018-05-17T10:16:27.448Z,27.91
2018-05-17T10:18:56.579Z,27.28
2018-05-17T10:21:26.053Z,26.78
2018-05-17T10:23:55.095Z,26.86
2018-05-17T10:26:24.184Z,26.54
2018-05-17T10:28:53.389Z,26.22
2018-05-17T10:31:22.653Z,25.81
2018-05-17T10:33:51.693Z,26.84
2018-05-17T10:36:20.941Z,26.28
2018-05-17T10:38:50.111Z,26.42
2018-05-17T10:41:19.248Z,27.36
2018-05-17T10:43:48.340Z,27.18
2018-05-17T10:46:17.589Z,27.20
2018-05-17T10:48:46.898Z,26.59
2018-05-17T10:51:16.224Z,26.35
2018-05-17T10:53:45.251Z,26.25
2018-05-17T10:56:14.493Z,25.83
2018-05-17T10:58:43.737Z,26.45
2018-05-17T11:01:13.043Z,26.58
2018-05-17T11:03:42.644Z,26.93
2018-05-17T11:06:12.322Z,27.52
2018-05-17T11:08:41.588Z,27.31
2018-05-17T11:11:10.641Z,26.82
2018-05-17T11:13:39.608Z,27.44
2018-05-17T11:16:08.660Z,27.34
2018-05-17T11:18:37.731Z,26.73
2018-05-17T11:21:06.933Z,26.50
2018-05-17T11:23:36.181Z,26.08
2018-05-17T11:26:08.407Z,25.93
2018-05-17T11:28:37.785Z,25.77
2018-05-17T11:31:06.757Z,26.01
2018-05-17T11:33:35.800Z,25.95
2018-05-17T11:36:05.282Z,26.42
2018-05-17T11:38:34.416Z,26.45
2018-05-17T11:41:03.636Z,26.56
2018-05-17T11:43:32.687Z,26.71
2018-05-17T11:46:01.937Z,27.02
2018-05-17T11:48:31.159Z,26.91
2018-05-17T11:51:00.309Z,26.74
2018-05-17T11:53:29.791Z,27.09
2018-05-17T11:55:59.500Z,26.67
2018-05-17T11:58:39.158Z,27.21
2018-05-17T12:01:13.320Z,26.95
2018-05-17T12:03:42.440Z,26.88
2018-05-17T12:06:11.842Z,26.76
2018-05-17T12:08:40.857Z,26.62
2018-05-17T12:11:10.359Z,26.57
2018-05-17T12:13:39.493Z,26.90
2018-05-17T12:16:08.632Z,26.83
2018-05-17T12:18:37.957Z,27.32
2018-05-17T12:21:07.164Z,27.48
2018-05-17T12:23:36.242Z,27.20
2018-05-17T12:26:05.372Z,27.02
2018-05-17T12:28:35.038Z,27.31
2018-05-17T12:31:04.074Z,26.49
2018-05-17T12:33:33.213Z,26.99
2018-05-17T12:36:02.412Z,26.93
2018-05-17T12:38:31.554Z,27.33
2018-05-17T12:41:00.615Z,27.15
2018-05-17T12:43:30.209Z,26.85
2018-05-17T12:46:00.192Z,26.70
2018-05-17T12:48:29.580Z,26.79
2018-05-17T12:50:58.832Z,26.79
2018-05-17T12:53:28.187Z,26.50
2018-05-17T12:55:57.232Z,26.35
2018-05-17T12:58:26.699Z,25.53
2018-05-17T13:00:55.908Z,25.63
2018-05-17T13:03:25.216Z,25.79
2018-05-17T13:05:54.306Z,25.87
2018-05-17T13:08:23.700Z,25.69
2018-05-17T13:10:52.833Z,25.87
2018-05-17T13:13:22.198Z,26.05
2018-05-17T13:15:51.424Z,26.04
2018-05-17T13:18:20.677Z,25.62
2018-05-17T13:20:49.926Z,24.74
2018-05-17T13:23:19.260Z,24.26
2018-05-17T13:25:48.489Z,24.77
2018-05-17T13:28:17.488Z,24.95
2018-05-17T13:30:46.918Z,24.75
2018-05-17T13:33:16.175Z,24.74
2018-05-17T13:35:45.413Z,23.84
2018-05-17T13:38:14.487Z,24.42
2018-05-17T13:40:43.633Z,25.00
2018-05-17T13:43:12.816Z,24.99
2018-05-17T13:45:42.080Z,25.09
2018-05-17T13:48:11.216Z,24.94
2018-05-17T13:50:40.350Z,25.88
2018-05-17T13:53:09.271Z,26.08
2018-05-17T13:55:38.291Z,27.04
2018-05-17T13:58:07.689Z,26.01
2018-05-17T14:00:36.859Z,25.32
2018-05-17T14:03:06.575Z,26.55
2018-05-17T14:05:35.816Z,26.28
2018-05-17T14:08:04.845Z,26.67
2018-05-17T14:10:33.883Z,27.52
2018-05-17T14:13:02.756Z,27.73
2018-05-17T14:15:31.928Z,27.71
2018-05-17T14:18:01.281Z,26.61
2018-05-17T14:20:30.565Z,26.97
2018-05-17T14:22:59.896Z,26.62
2018-05-17T14:25:29.648Z,25.65
2018-05-17T14:27:58.999Z,24.73
2018-05-17T14:30:28.384Z,24.33
2018-05-17T14:32:57.856Z,24.34
2018-05-17T14:35:26.977Z,24.31
2018-05-17T14:37:56.277Z,24.75
2018-05-17T14:40:25.692Z,25.73
2018-05-17T14:42:54.929Z,26.65
2018-05-17T14:45:25.366Z,26.68
2018-05-17T14:47:54.623Z,27.03
2018-05-17T14:50:24.023Z,25.54
2018-05-17T14:52:53.214Z,24.91
2018-05-17T14:55:22.462Z,24.53
2018-05-17T14:57:52.708Z,23.92
2018-05-17T15:00:22.468Z,23.88
2018-05-17T15:02:51.683Z,23.76
2018-05-17T15:05:21.054Z,25.24
2018-05-17T15:07:50.280Z,26.19
2018-05-17T15:10:19.283Z,27.71
2018-05-17T15:12:48.878Z,27.15
2018-05-17T15:15:18.565Z,26.89
2018-05-17T15:17:47.797Z,27.57
2018-05-17T15:20:17.224Z,27.39
2018-05-17T15:22:46.393Z,27.95
2018-05-17T15:25:15.692Z,27.55
2018-05-17T15:27:45.037Z,27.00
2018-05-17T15:30:14.365Z,26.86
2018-05-17T15:32:43.400Z,26.57
2018-05-17T15:35:12.701Z,26.67
2018-05-17T15:37:42.387Z,26.83
2018-05-17T15:40:11.608Z,27.54
2018-05-17T15:42:40.689Z,26.32
2018-05-17T15:45:09.865Z,25.69
2018-05-17T15:47:39.183Z,24.27
2018-05-17T15:50:08.361Z,23.42
2018-05-17T15:52:37.561Z,23.09
2018-05-17T15:55:06.753Z,22.65
2018-05-17T16:00:03.422Z,22.32
2018-05-17T16:02:32.660Z,22.40
2018-05-17T16:05:01.680Z,22.17
2018-05-17T16:07:31.007Z,22.12
2018-05-17T16:10:00.052Z,22.04
2018-05-17T16:12:29.171Z,21.97
2018-05-17T16:14:58.355Z,21.91
2018-05-17T16:17:27.462Z,22.04
2018-05-17T16:19:56.705Z,21.86
2018-05-17T16:22:26.245Z,21.82
2018-05-17T16:24:55.324Z,22.07
2018-05-17T16:27:24.535Z,22.18
2018-05-17T16:29:53.665Z,22.36
2018-05-17T16:32:23.033Z,23.20
2018-05-17T16:34:52.544Z,24.00
2018-05-17T16:37:21.800Z,23.65
2018-05-17T16:39:50.999Z,22.77
2018-05-17T16:42:20.279Z,22.57
2018-05-17T16:44:49.248Z,22.40
2018-05-17T16:47:18.541Z,21.83
2018-05-17T16:49:48.354Z,22.13
2018-05-17T16:52:17.712Z,22.25
2018-05-17T16:54:46.911Z,22.25
2018-05-17T16:57:16.091Z,21.78
2018-05-17T16:59:45.130Z,21.99
2018-05-17T17:02:14.290Z,21.86
2018-05-17T17:04:43.554Z,22.06
2018-05-17T17:07:12.823Z,21.91
2018-05-17T17:09:41.972Z,21.85
2018-05-17T17:12:11.331Z,22.18
2018-05-17T17:14:41.821Z,21.86
2018-05-17T17:17:10.863Z,21.60
2018-05-17T17:19:39.904Z,21.24
2018-05-17T17:22:09.089Z,20.72
2018-05-17T17:24:38.212Z,20.62
2018-05-17T17:27:07.692Z,20.63
2018-05-17T17:29:37.176Z,20.76
2018-05-17T17:32:07.550Z,20.84
2018-05-17T17:34:36.911Z,20.76
2018-05-17T17:37:06.058Z,21.03
2018-05-17T17:39:35.121Z,21.08
2018-05-17T17:42:04.390Z,21.26
2018-05-17T17:44:33.428Z,21.63
2018-05-17T17:47:02.700Z,21.73
2018-05-17T17:49:31.984Z,21.53
2018-05-17T17:52:01.218Z,21.40
2018-05-17T17:54:30.260Z,21.60
2018-05-17T17:56:59.248Z,21.67
2018-05-17T17:59:28.490Z,21.64
2018-05-17T18:01:57.668Z,21.64
2018-05-17T18:04:26.795Z,21.60
2018-05-17T18:06:55.809Z,21.69
2018-05-17T18:09:24.794Z,21.86
2018-05-17T18:11:53.740Z,21.97
2018-05-17T18:14:22.791Z,22.09
2018-05-17T18:16:51.788Z,22.36
2018-05-17T18:19:21.004Z,22.06
2018-05-17T18:21:50.206Z,21.95
2018-05-17T18:24:19.253Z,21.91
2018-05-17T18:26:48.449Z,21.91
2018-05-17T18:29:17.463Z,22.07
2018-05-17T18:31:46.468Z,21.93
2018-05-17T18:34:15.672Z,22.17
2018-05-17T18:36:45.310Z,21.63
2018-05-17T18:39:14.304Z,21.84
2018-05-17T18:41:43.284Z,21.88
2018-05-17T18:44:12.267Z,21.58
2018-05-17T18:46:41.441Z,21.97
2018-05-17T18:49:10.715Z,21.71
2018-05-17T18:51:40.159Z,21.64
2018-05-17T18:54:09.498Z,21.99
2018-05-17T18:56:38.752Z,22.12
2018-05-17T18:59:08.432Z,21.72
2018-05-17T19:01:37.649Z,21.98
2018-05-17T19:04:06.800Z,22.00
2018-05-17T19:06:36.028Z,21.93
2018-05-17T19:09:06.129Z,21.63
2018-05-17T19:11:35.056Z,21.68
2018-05-17T19:14:04.215Z,21.29
2018-05-17T19:16:33.233Z,20.99
2018-05-17T19:19:02.300Z,20.78
2018-05-17T19:21:31.512Z,20.69
2018-05-17T19:24:00.881Z,20.73
2018-05-17T19:26:30.067Z,21.30
2018-05-17T19:28:59.075Z,20.79
2018-05-17T19:31:28.396Z,20.91
2018-05-17T19:33:57.646Z,20.85
2018-05-17T19:36:27.015Z,20.98
2018-05-17T19:38:56.224Z,20.81
2018-05-17T19:41:25.302Z,20.71
2018-05-17T19:43:54.597Z,20.64
2018-05-17T19:46:23.668Z,20.84
2018-05-17T19:48:52.792Z,20.87
2018-05-17T19:51:22.037Z,20.90
2018-05-17T19:53:51.307Z,21.03
2018-05-17T19:56:20.460Z,20.91
2018-05-17T19:58:49.937Z,20.79
2018-05-17T20:01:18.982Z,20.88
2018-05-17T20:03:48.337Z,20.78
2018-05-17T20:06:17.400Z,20.53
2018-05-17T20:08:46.493Z,20.97
2018-05-17T20:11:15.502Z,20.78
2018-05-17T20:13:45.029Z,20.80
2018-05-17T20:16:13.996Z,21.03
2018-05-17T20:18:43.154Z,20.96
2018-05-17T20:21:12.722Z,20.31
2018-05-17T20:23:42.581Z,20.52
2018-05-17T20:26:11.720Z,20.65
2018-05-17T20:28:41.092Z,20.53
2018-05-17T20:31:10.260Z,20.23
2018-05-17T20:33:40.196Z,20.34
2018-05-17T20:36:09.522Z,20.56
2018-05-17T20:38:38.671Z,20.51
2018-05-17T20:41:08.137Z,20.48
2018-05-17T20:43:37.056Z,20.63
2018-05-17T20:46:06.208Z,20.83
2018-05-17T20:48:35.545Z,20.82
2018-05-17T20:51:04.664Z,20.58
2018-05-17T20:53:33.941Z,20.54
2018-05-17T20:56:03.330Z,20.42
2018-05-17T20:58:32.669Z,20.58
2018-05-17T21:01:01.892Z,20.50
2018-05-17T21:03:31.622Z,20.33
2018-05-17T21:06:01.355Z,20.64
2018-05-17T21:08:30.761Z,20.39
2018-05-17T21:10:59.874Z,20.37
2018-05-17T21:13:29.119Z,20.55
2018-05-17T21:16:01.037Z,20.40
2018-05-17T21:18:30.188Z,20.68
2018-05-17T21:20:59.331Z,20.49
2018-05-17T21:23:28.491Z,20.56
2018-05-17T21:25:57.728Z,20.47
2018-05-17T21:28:27.061Z,20.46
2018-05-17T21:30:56.282Z,20.85
2018-05-17T21:33:25.536Z,20.48
2018-05-17T21:35:54.933Z,20.66
2018-05-17T21:38:24.337Z,20.76
2018-05-17T21:40:53.393Z,20.49
2018-05-17T21:43:22.440Z,20.58
2018-05-17T21:45:51.798Z,20.56
2018-05-17T21:48:21.174Z,20.66
2018-05-17T21:50:50.177Z,20.36
2018-05-17T21:53:19.356Z,20.21
2018-05-17T21:55:48.383Z,20.38
2018-05-17T21:58:19.976Z,20.68
2018-05-17T22:00:58.597Z,20.37
2018-05-17T22:03:27.768Z,20.38
2018-05-17T22:05:56.874Z,20.22
2018-05-17T22:08:26.359Z,20.13
2018-05-17T22:10:55.548Z,20.45
2018-05-17T22:13:24.704Z,20.29
2018-05-17T22:15:53.940Z,20.13
2018-05-17T22:18:23.278Z,20.01
2018-05-17T22:20:52.507Z,19.89
2018-05-17T22:23:22.284Z,19.81
2018-05-17T22:25:51.855Z,19.95
2018-05-17T22:28:20.953Z,19.68
2018-05-17T22:30:50.493Z,19.67
2018-05-17T22:33:19.528Z,19.46
2018-05-17T22:35:48.697Z,19.40
2018-05-17T22:38:17.924Z,19.47
2018-05-17T22:40:47.088Z,19.64
2018-05-17T22:43:16.513Z,19.58
2018-05-17T22:45:45.624Z,19.25
2018-05-17T22:48:15.077Z,19.16
2018-05-17T22:50:44.881Z,19.11
2018-05-17T22:53:14.169Z,18.92
2018-05-17T22:55:43.212Z,18.86
2018-05-17T22:58:24.353Z,18.88
2018-05-17T23:00:53.587Z,18.71
2018-05-17T23:03:22.708Z,18.57
2018-05-17T23:05:51.958Z,18.50
2018-05-17T23:08:21.004Z,18.44
2018-05-17T23:10:50.181Z,18.41
2018-05-17T23:13:19.663Z,18.61
2018-05-17T23:15:48.801Z,18.56
2018-05-17T23:18:17.880Z,18.78
2018-05-17T23:20:46.964Z,18.60
2018-05-17T23:23:16.124Z,18.42
2018-05-17T23:25:45.385Z,18.25
2018-05-17T23:28:14.467Z,18.19
2018-05-17T23:30:43.577Z,18.19
2018-05-17T23:33:12.964Z,18.25
2018-05-17T23:35:42.140Z,18.15
2018-05-17T23:38:11.468Z,18.25
2018-05-17T23:43:46.312Z,17.92
2018-05-17T23:46:16.135Z,17.92
2018-05-17T23:48:45.656Z,17.95
2018-05-17T23:51:16.201Z,17.89
2018-05-17T23:53:45.388Z,17.81
2018-05-17T23:56:14.508Z,17.83
2018-05-17T23:58:43.785Z,17.81
